createdAt,value
2018-05-27T00:00:14.760Z,81.35
2018-05-27T00:01:14.771Z,81.64
2018-05-27T00:02:14.767Z,81.26
2018-05-27T00:03:35.777Z,81.35
2018-05-27T00:04:14.782Z,81.07
2018-05-27T00:05:14.800Z,81.35
2018-05-27T00:06:14.794Z,80.87
2018-05-27T00:07:14.784Z,80.78
2018-05-27T00:08:14.778Z,80.78
2018-05-27T00:09:35.792Z,80.49
2018-05-27T00:10:14.790Z,80.97
2018-05-27T00:11:14.821Z,81.16
2018-05-27T00:12:14.789Z,81.26
2018-05-27T00:13:14.792Z,81.45
2018-05-27T00:14:14.820Z,80.78
2018-05-27T00:15:35.809Z,81.35
2018-05-27T00:16:14.797Z,81.45
2018-05-27T00:17:14.799Z,81.35
2018-05-27T00:18:14.804Z,81.45
2018-05-27T00:19:14.805Z,81.45
2018-05-27T00:20:14.829Z,80.87
2018-05-27T00:21:35.824Z,81.45
2018-05-27T00:22:14.835Z,81.45
2018-05-27T00:23:14.830Z,81.54
2018-05-27T00:24:14.824Z,81.35
2018-05-27T00:25:14.820Z,81.74
2018-05-27T00:26:14.828Z,81.45
2018-05-27T00:27:35.840Z,82.31
2018-05-27T00:28:14.827Z,82.31
2018-05-27T00:29:14.830Z,81.84
2018-05-27T00:30:14.834Z,81.84
2018-05-27T00:31:14.842Z,82.12
2018-05-27T00:32:14.835Z,82.12
2018-05-27T00:33:36.197Z,82.41
2018-05-27T00:34:15.743Z,82.31
2018-05-27T00:35:14.850Z,82.03
2018-05-27T00:36:14.868Z,82.12
2018-05-27T00:37:14.844Z,82.12
2018-05-27T00:38:14.853Z,82.12
2018-05-27T00:39:35.862Z,81.60
2018-05-27T00:40:14.871Z,82.21
2018-05-27T00:41:14.858Z,81.60
2018-05-27T00:42:14.858Z,81.89
2018-05-27T00:43:14.861Z,82.37
2018-05-27T00:44:14.864Z,82.65
2018-05-27T00:45:35.873Z,82.56
2018-05-27T00:46:14.879Z,82.75
2018-05-27T00:47:14.876Z,82.56
2018-05-27T00:48:15.166Z,82.18
2018-05-27T00:49:14.910Z,82.75
2018-05-27T00:50:14.879Z,82.27
2018-05-27T00:51:35.959Z,82.65
2018-05-27T00:52:14.972Z,82.41
2018-05-27T00:53:15.117Z,82.37
2018-05-27T00:54:14.930Z,82.75
2018-05-27T00:55:15.175Z,82.56
2018-05-27T00:56:14.955Z,82.46
2018-05-27T00:57:36.009Z,82.56
2018-05-27T00:58:14.976Z,82.46
2018-05-27T00:59:15.281Z,82.37
2018-05-27T01:00:14.894Z,82.65
2018-05-27T01:01:14.940Z,82.65
2018-05-27T01:02:14.897Z,82.65
2018-05-27T01:03:36.980Z,82.75
2018-05-27T01:04:14.931Z,82.56
2018-05-27T01:05:14.917Z,82.75
2018-05-27T01:06:14.913Z,82.75
2018-05-27T01:07:15.294Z,82.27
2018-05-27T01:08:14.934Z,82.37
2018-05-27T01:09:35.925Z,82.56
2018-05-27T01:10:14.922Z,82.46
2018-05-27T01:11:14.917Z,83.23
2018-05-27T01:12:14.922Z,82.46
2018-05-27T01:13:14.923Z,82.65
2018-05-27T01:14:14.924Z,82.85
2018-05-27T01:15:35.936Z,83.14
2018-05-27T01:16:14.963Z,83.14
2018-05-27T01:17:14.932Z,83.14
2018-05-27T01:18:14.956Z,83.33
2018-05-27T01:19:14.937Z,83.33
2018-05-27T01:20:14.934Z,83.14
2018-05-27T01:21:35.948Z,84.09
2018-05-27T01:22:14.942Z,83.61
2018-05-27T01:23:14.944Z,83.71
2018-05-27T01:24:14.941Z,83.91
2018-05-27T01:25:14.947Z,83.61
2018-05-27T01:26:14.958Z,83.81
2018-05-27T01:27:35.968Z,83.61
2018-05-27T01:28:14.964Z,83.52
2018-05-27T01:29:14.956Z,83.91
2018-05-27T01:30:14.957Z,84.00
2018-05-27T01:31:14.955Z,83.91
2018-05-27T01:32:14.958Z,83.52
2018-05-27T01:33:35.971Z,83.91
2018-05-27T01:34:14.964Z,83.52
2018-05-27T01:35:14.968Z,83.67
2018-05-27T01:36:14.968Z,83.91
2018-05-27T01:37:14.967Z,84.05
2018-05-27T01:38:14.973Z,83.58
2018-05-27T01:39:35.980Z,84.25
2018-05-27T01:40:14.979Z,84.15
2018-05-27T01:41:14.976Z,84.44
2018-05-27T01:42:14.976Z,84.34
2018-05-27T01:43:14.978Z,84.82
2018-05-27T01:44:14.980Z,84.53
2018-05-27T01:45:35.994Z,85.01
2018-05-27T01:46:14.986Z,84.63
2018-05-27T01:47:14.986Z,85.30
2018-05-27T01:48:14.988Z,84.91
2018-05-27T01:49:14.989Z,84.82
2018-05-27T01:50:14.991Z,84.53
2018-05-27T01:51:36.003Z,84.34
2018-05-27T01:52:14.999Z,84.34
2018-05-27T01:53:15.000Z,84.82
2018-05-27T01:54:15.158Z,84.19
2018-05-27T01:55:15.137Z,84.15
2018-05-27T01:56:15.079Z,84.53
2018-05-27T01:57:36.047Z,84.53
2018-05-27T01:58:15.005Z,85.30
2018-05-27T01:59:15.010Z,84.91
2018-05-27T02:00:15.012Z,85.58
2018-05-27T02:01:15.014Z,85.39
2018-05-27T02:02:15.071Z,85.11
2018-05-27T02:03:36.242Z,85.88
2018-05-27T02:04:16.148Z,85.11
2018-05-27T02:05:15.089Z,85.49
2018-05-27T02:06:15.021Z,85.01
2018-05-27T02:07:15.022Z,85.11
2018-05-27T02:08:15.059Z,84.91
2018-05-27T02:09:36.038Z,85.49
2018-05-27T02:10:15.028Z,85.30
2018-05-27T02:11:15.030Z,85.78
2018-05-27T02:12:15.034Z,85.78
2018-05-27T02:13:15.031Z,85.49
2018-05-27T02:14:15.038Z,85.39
2018-05-27T02:15:36.062Z,85.11
2018-05-27T02:16:15.035Z,85.11
2018-05-27T02:17:15.044Z,85.49
2018-05-27T02:18:15.041Z,85.21
2018-05-27T02:19:15.043Z,85.39
2018-05-27T02:20:15.067Z,85.88
2018-05-27T02:21:36.052Z,85.68
2018-05-27T02:22:15.045Z,85.88
2018-05-27T02:23:15.051Z,85.21
2018-05-27T02:24:15.051Z,85.58
2018-05-27T02:25:15.051Z,85.58
2018-05-27T02:26:15.055Z,85.58
2018-05-27T02:27:36.077Z,85.68
2018-05-27T02:28:15.056Z,84.91
2018-05-27T02:29:15.088Z,85.68
2018-05-27T02:30:15.060Z,85.49
2018-05-27T02:31:15.062Z,85.21
2018-05-27T02:32:15.066Z,85.30
2018-05-27T02:33:36.077Z,85.21
2018-05-27T02:34:15.084Z,85.68
2018-05-27T02:35:15.073Z,85.21
2018-05-27T02:36:15.070Z,85.58
2018-05-27T02:37:15.076Z,86.25
2018-05-27T02:38:15.081Z,86.35
2018-05-27T02:39:36.084Z,86.35
2018-05-27T02:40:15.080Z,86.25
2018-05-27T02:41:15.081Z,86.07
2018-05-27T02:42:15.081Z,86.35
2018-05-27T02:43:15.079Z,86.25
2018-05-27T02:44:15.103Z,86.07
2018-05-27T02:45:36.094Z,86.25
2018-05-27T02:46:15.085Z,86.45
2018-05-27T02:47:15.091Z,86.16
2018-05-27T02:48:15.090Z,86.54
2018-05-27T02:49:15.095Z,86.45
2018-05-27T02:50:15.093Z,86.45
2018-05-27T02:51:36.106Z,86.64
2018-05-27T02:52:15.098Z,86.64
2018-05-27T02:53:15.106Z,86.74
2018-05-27T02:54:15.100Z,86.45
2018-05-27T02:55:15.105Z,86.45
2018-05-27T02:56:15.103Z,86.35
2018-05-27T02:57:36.112Z,86.45
2018-05-27T02:58:15.106Z,86.45
2018-05-27T02:59:15.110Z,86.45
2018-05-27T03:00:15.117Z,86.25
2018-05-27T03:01:15.112Z,86.12
2018-05-27T03:02:15.111Z,86.02
2018-05-27T03:03:36.121Z,86.41
2018-05-27T03:04:15.113Z,86.50
2018-05-27T03:05:15.115Z,86.98
2018-05-27T03:06:15.116Z,87.17
2018-05-27T03:07:15.126Z,87.08
2018-05-27T03:08:15.122Z,87.08
2018-05-27T03:09:36.132Z,87.55
2018-05-27T03:10:15.126Z,86.79
2018-05-27T03:11:15.126Z,87.46
2018-05-27T03:12:15.139Z,86.98
2018-05-27T03:13:15.127Z,86.98
2018-05-27T03:14:15.128Z,86.88
2018-05-27T03:15:36.141Z,86.50
2018-05-27T03:16:15.129Z,86.21
2018-05-27T03:17:15.131Z,86.45
2018-05-27T03:18:36.144Z,86.50
2018-05-27T03:19:15.142Z,86.98
2018-05-27T03:20:36.167Z,86.88
2018-05-27T03:21:15.141Z,86.98
2018-05-27T03:22:15.135Z,86.98
2018-05-27T03:23:15.140Z,87.08
2018-05-27T03:24:15.142Z,87.08
2018-05-27T03:25:15.143Z,87.17
2018-05-27T03:26:36.214Z,87.37
2018-05-27T03:27:15.166Z,87.17
2018-05-27T03:28:15.158Z,86.98
2018-05-27T03:29:15.152Z,87.17
2018-05-27T03:30:15.156Z,87.27
2018-05-27T03:31:15.155Z,87.55
2018-05-27T03:32:36.167Z,87.21
2018-05-27T03:33:15.153Z,86.93
2018-05-27T03:34:15.160Z,86.64
2018-05-27T03:35:15.159Z,86.88
2018-05-27T03:36:15.161Z,86.93
2018-05-27T03:37:15.160Z,85.97
2018-05-27T03:38:36.181Z,86.35
2018-05-27T03:39:15.167Z,86.25
2018-05-27T03:40:15.170Z,86.45
2018-05-27T03:41:15.166Z,86.45
2018-05-27T03:42:15.166Z,86.07
2018-05-27T03:43:15.170Z,86.35
2018-05-27T03:44:36.188Z,86.25
2018-05-27T03:45:15.176Z,86.35
2018-05-27T03:46:15.178Z,86.25
2018-05-27T03:47:15.180Z,85.88
2018-05-27T03:48:15.179Z,85.97
2018-05-27T03:49:15.181Z,86.64
2018-05-27T03:50:36.196Z,86.54
2018-05-27T03:51:15.185Z,86.16
2018-05-27T03:52:15.185Z,86.25
2018-05-27T03:53:15.187Z,85.78
2018-05-27T03:54:15.188Z,85.97
2018-05-27T03:55:15.192Z,86.16
2018-05-27T03:56:36.214Z,86.07
2018-05-27T03:57:15.191Z,86.16
2018-05-27T03:58:15.192Z,85.97
2018-05-27T03:59:15.197Z,86.25
2018-05-27T04:00:15.195Z,86.25
2018-05-27T04:01:15.198Z,86.25
2018-05-27T04:02:36.209Z,86.25
2018-05-27T04:03:15.204Z,86.83
2018-05-27T04:04:15.205Z,86.25
2018-05-27T04:05:15.208Z,86.25
2018-05-27T04:06:15.207Z,86.45
2018-05-27T04:07:15.214Z,87.12
2018-05-27T04:08:36.221Z,87.12
2018-05-27T04:09:15.212Z,87.98
2018-05-27T04:10:15.215Z,88.08
2018-05-27T04:11:15.222Z,88.65
2018-05-27T04:12:15.218Z,88.94
2018-05-27T04:13:15.219Z,88.84
2018-05-27T04:14:36.231Z,89.61
2018-05-27T04:15:15.222Z,90.00
2018-05-27T04:16:15.222Z,89.80
2018-05-27T04:17:15.230Z,90.00
2018-05-27T04:18:15.225Z,89.71
2018-05-27T04:19:15.229Z,89.90
2018-05-27T04:20:36.236Z,90.38
2018-05-27T04:21:15.231Z,90.57
2018-05-27T04:22:15.232Z,90.57
2018-05-27T04:23:15.233Z,90.38
2018-05-27T04:24:15.238Z,91.14
2018-05-27T04:25:15.236Z,90.09
2018-05-27T04:26:36.315Z,90.67
2018-05-27T04:27:15.242Z,91.24
2018-05-27T04:28:15.242Z,90.38
2018-05-27T04:29:15.253Z,90.76
2018-05-27T04:30:15.247Z,90.67
2018-05-27T04:31:15.252Z,90.57
2018-05-27T04:32:36.253Z,90.67
2018-05-27T04:33:15.248Z,90.28
2018-05-27T04:34:15.249Z,90.76
2018-05-27T04:35:15.253Z,90.86
2018-05-27T04:36:15.262Z,90.71
2018-05-27T04:37:15.260Z,90.23
2018-05-27T04:38:36.263Z,90.00
2018-05-27T04:39:15.260Z,90.61
2018-05-27T04:40:15.261Z,90.71
2018-05-27T04:41:15.260Z,91.00
2018-05-27T04:42:15.261Z,90.71
2018-05-27T04:43:15.262Z,90.81
2018-05-27T04:44:36.276Z,90.42
2018-05-27T04:45:15.265Z,91.00
2018-05-27T04:46:15.268Z,90.33
2018-05-27T04:47:15.273Z,90.04
2018-05-27T04:48:15.268Z,90.71
2018-05-27T04:49:15.272Z,90.33
2018-05-27T04:50:36.282Z,90.42
2018-05-27T04:51:15.278Z,90.42
2018-05-27T04:52:15.277Z,90.61
2018-05-27T04:53:15.277Z,90.52
2018-05-27T04:54:15.283Z,90.71
2018-05-27T04:55:15.284Z,90.33
2018-05-27T04:56:36.314Z,89.94
2018-05-27T04:57:15.294Z,89.56
2018-05-27T04:58:15.287Z,90.04
2018-05-27T04:59:15.288Z,89.56
2018-05-27T05:00:15.291Z,89.65
2018-05-27T05:01:15.291Z,89.56
2018-05-27T05:02:36.301Z,88.89
2018-05-27T05:03:15.297Z,88.70
2018-05-27T05:04:15.295Z,88.74
2018-05-27T05:05:15.297Z,88.41
2018-05-27T05:06:15.301Z,88.12
2018-05-27T05:07:15.301Z,88.45
2018-05-27T05:08:36.311Z,87.88
2018-05-27T05:09:15.308Z,87.98
2018-05-27T05:10:15.312Z,87.68
2018-05-27T05:11:15.312Z,87.98
2018-05-27T05:12:15.310Z,87.30
2018-05-27T05:13:15.311Z,87.78
2018-05-27T05:14:36.326Z,88.17
2018-05-27T05:15:15.316Z,87.88
2018-05-27T05:16:15.316Z,88.35
2018-05-27T05:17:15.320Z,88.45
2018-05-27T05:18:15.322Z,87.98
2018-05-27T05:19:15.328Z,87.88
2018-05-27T05:20:36.337Z,88.26
2018-05-27T05:21:15.330Z,89.12
2018-05-27T05:22:15.381Z,89.41
2018-05-27T05:23:15.331Z,89.61
2018-05-27T05:24:15.350Z,89.70
2018-05-27T05:25:15.335Z,89.55
2018-05-27T05:26:36.420Z,88.79
2018-05-27T05:27:15.340Z,88.79
2018-05-27T05:28:15.348Z,88.49
2018-05-27T05:29:15.344Z,88.31
2018-05-27T05:30:15.348Z,88.31
2018-05-27T05:31:15.354Z,88.49
2018-05-27T05:32:36.361Z,88.40
2018-05-27T05:33:15.352Z,88.02
2018-05-27T05:34:15.360Z,88.69
2018-05-27T05:35:15.356Z,87.63
2018-05-27T05:36:15.392Z,87.73
2018-05-27T05:37:15.360Z,87.35
2018-05-27T05:38:36.372Z,87.15
2018-05-27T05:39:15.365Z,86.87
2018-05-27T05:40:15.369Z,86.58
2018-05-27T05:41:15.372Z,86.48
2018-05-27T05:42:15.374Z,85.91
2018-05-27T05:43:15.372Z,85.91
2018-05-27T05:44:36.389Z,86.05
2018-05-27T05:45:15.379Z,85.37
2018-05-27T05:46:15.380Z,85.28
2018-05-27T05:47:15.383Z,85.95
2018-05-27T05:48:15.387Z,84.89
2018-05-27T05:49:15.441Z,84.80
2018-05-27T05:50:36.400Z,84.80
2018-05-27T05:51:15.398Z,84.84
2018-05-27T05:52:15.402Z,84.55
2018-05-27T05:53:15.397Z,84.26
2018-05-27T05:54:15.407Z,83.97
2018-05-27T05:55:15.403Z,84.07
2018-05-27T05:56:36.519Z,83.97
2018-05-27T05:57:15.408Z,83.69
2018-05-27T05:58:15.412Z,82.82
2018-05-27T05:59:15.414Z,81.90
2018-05-27T06:00:15.419Z,81.52
2018-05-27T06:01:15.441Z,80.84
2018-05-27T06:02:36.432Z,80.27
2018-05-27T06:03:15.427Z,80.46
2018-05-27T06:04:15.432Z,80.17
2018-05-27T06:05:15.433Z,79.69
2018-05-27T06:06:15.459Z,79.79
2018-05-27T06:07:15.442Z,80.36
2018-05-27T06:08:36.453Z,80.07
2018-05-27T06:09:15.447Z,80.07
2018-05-27T06:10:15.455Z,78.58
2018-05-27T06:11:15.451Z,78.58
2018-05-27T06:12:15.458Z,78.19
2018-05-27T06:13:15.456Z,78.67
2018-05-27T06:14:36.467Z,78.83
2018-05-27T06:15:15.462Z,79.30
2018-05-27T06:16:15.485Z,79.50
2018-05-27T06:17:15.474Z,79.88
2018-05-27T06:18:15.477Z,80.07
2018-05-27T06:19:15.478Z,80.51
2018-05-27T06:20:36.488Z,79.88
2018-05-27T06:21:15.483Z,80.80
2018-05-27T06:22:15.490Z,80.42
2018-05-27T06:23:15.487Z,81.28
2018-05-27T06:24:15.487Z,80.42
2018-05-27T06:25:15.493Z,80.55
2018-05-27T06:26:36.521Z,79.84
2018-05-27T06:27:15.508Z,80.22
2018-05-27T06:28:15.512Z,79.94
2018-05-27T06:29:15.517Z,80.61
2018-05-27T06:30:15.509Z,80.80
2018-05-27T06:31:15.513Z,80.42
2018-05-27T06:32:36.529Z,80.90
2018-05-27T06:33:15.516Z,81.67
2018-05-27T06:34:15.519Z,81.52
2018-05-27T06:35:15.525Z,81.04
2018-05-27T06:36:15.568Z,81.61
2018-05-27T06:37:15.527Z,81.61
2018-05-27T06:38:36.546Z,81.32
2018-05-27T06:39:15.534Z,81.52
2018-05-27T06:40:15.537Z,81.71
2018-05-27T06:41:15.543Z,81.42
2018-05-27T06:42:15.545Z,81.52
2018-05-27T06:43:15.549Z,81.42
2018-05-27T06:44:36.570Z,81.81
2018-05-27T06:45:15.553Z,81.52
2018-05-27T06:46:15.555Z,82.09
2018-05-27T06:47:15.557Z,82.19
2018-05-27T06:48:15.558Z,82.19
2018-05-27T06:49:15.562Z,82.57
2018-05-27T06:50:36.584Z,82.48
2018-05-27T06:51:15.573Z,82.19
2018-05-27T06:52:15.572Z,82.09
2018-05-27T06:53:15.576Z,81.99
2018-05-27T06:54:15.575Z,82.09
2018-05-27T06:55:15.577Z,82.38
2018-05-27T06:56:36.629Z,82.29
2018-05-27T06:57:15.588Z,82.09
2018-05-27T06:58:15.590Z,82.19
2018-05-27T06:59:15.592Z,81.52
2018-05-27T07:00:15.598Z,81.71
2018-05-27T07:01:15.600Z,81.61
2018-05-27T07:02:36.613Z,80.75
2018-05-27T07:03:15.601Z,80.84
2018-05-27T07:04:15.606Z,80.07
2018-05-27T07:05:15.608Z,80.21
2018-05-27T07:06:15.610Z,79.60
2018-05-27T07:07:15.616Z,79.98
2018-05-27T07:08:36.630Z,79.05
2018-05-27T07:09:15.622Z,79.35
2018-05-27T07:10:15.628Z,79.82
2018-05-27T07:11:15.628Z,79.63
2018-05-27T07:12:15.628Z,78.67
2018-05-27T07:13:15.635Z,78.67
2018-05-27T07:14:36.645Z,78.48
2018-05-27T07:15:15.636Z,78.86
2018-05-27T07:16:15.645Z,78.77
2018-05-27T07:17:15.643Z,78.48
2018-05-27T07:18:15.647Z,78.38
2018-05-27T07:19:15.652Z,78.42
2018-05-27T07:20:36.661Z,78.61
2018-05-27T07:21:15.657Z,78.52
2018-05-27T07:22:15.662Z,78.52
2018-05-27T07:23:15.664Z,78.42
2018-05-27T07:24:15.667Z,78.33
2018-05-27T07:25:15.671Z,78.03
2018-05-27T07:26:36.725Z,78.13
2018-05-27T07:27:15.677Z,77.94
2018-05-27T07:28:15.700Z,77.75
2018-05-27T07:29:15.699Z,77.65
2018-05-27T07:30:15.686Z,78.13
2018-05-27T07:31:15.690Z,77.75
2018-05-27T07:32:36.710Z,78.13
2018-05-27T07:33:15.697Z,77.84
2018-05-27T07:34:15.702Z,77.36
2018-05-27T07:35:15.703Z,77.56
2018-05-27T07:36:15.707Z,76.88
2018-05-27T07:37:15.713Z,77.46
2018-05-27T07:38:36.725Z,77.31
2018-05-27T07:39:15.719Z,77.69
2018-05-27T07:40:15.725Z,77.59
2018-05-27T07:41:15.727Z,76.73
2018-05-27T07:42:15.732Z,76.59
2018-05-27T07:43:15.737Z,77.21
2018-05-27T07:44:36.746Z,76.73
2018-05-27T07:45:15.742Z,77.11
2018-05-27T07:46:15.743Z,76.92
2018-05-27T07:47:15.748Z,77.11
2018-05-27T07:48:15.751Z,77.01
2018-05-27T07:49:15.754Z,77.21
2018-05-27T07:50:36.770Z,77.01
2018-05-27T07:51:15.764Z,77.01
2018-05-27T07:52:15.765Z,77.11
2018-05-27T07:53:15.769Z,76.57
2018-05-27T07:54:15.772Z,76.18
2018-05-27T07:55:15.774Z,76.67
2018-05-27T07:56:36.824Z,76.73
2018-05-27T07:57:15.785Z,76.76
2018-05-27T07:58:15.856Z,75.90
2018-05-27T07:59:15.791Z,75.57
2018-05-27T08:00:15.794Z,75.71
2018-05-27T08:01:15.803Z,75.13
2018-05-27T08:02:36.811Z,75.23
2018-05-27T08:03:15.828Z,75.32
2018-05-27T08:04:15.811Z,75.71
2018-05-27T08:05:15.815Z,75.13
2018-05-27T08:06:15.824Z,75.51
2018-05-27T08:07:15.822Z,75.55
2018-05-27T08:08:36.836Z,75.45
2018-05-27T08:09:15.836Z,75.36
2018-05-27T08:10:15.836Z,75.36
2018-05-27T08:11:15.840Z,74.10
2018-05-27T08:12:15.840Z,74.30
2018-05-27T08:13:15.845Z,74.78
2018-05-27T08:14:36.860Z,74.68
2018-05-27T08:15:15.856Z,74.68
2018-05-27T08:16:15.858Z,74.20
2018-05-27T08:17:15.861Z,74.01
2018-05-27T08:18:15.866Z,73.72
2018-05-27T08:19:15.881Z,73.82
2018-05-27T08:20:36.885Z,73.53
2018-05-27T08:21:15.884Z,73.53
2018-05-27T08:22:15.885Z,73.53
2018-05-27T08:23:15.887Z,73.14
2018-05-27T08:24:15.890Z,73.14
2018-05-27T08:25:15.897Z,73.62
2018-05-27T08:26:36.926Z,74.01
2018-05-27T08:27:15.904Z,74.10
2018-05-27T08:28:15.907Z,73.75
2018-05-27T08:29:15.912Z,73.82
2018-05-27T08:30:15.917Z,73.57
2018-05-27T08:31:15.928Z,73.18
2018-05-27T08:32:36.932Z,73.66
2018-05-27T08:33:15.929Z,72.92
2018-05-27T08:34:15.933Z,71.61
2018-05-27T08:35:15.938Z,69.07
2018-05-27T08:36:15.945Z,66.72
2018-05-27T08:37:15.971Z,66.33
2018-05-27T08:38:36.961Z,65.50
2018-05-27T08:39:15.963Z,65.37
2018-05-27T08:40:15.965Z,64.75
2018-05-27T08:41:15.965Z,62.49
2018-05-27T08:42:15.973Z,60.39
2018-05-27T08:43:15.983Z,59.28
2018-05-27T08:44:36.990Z,58.61
2018-05-27T08:45:15.989Z,57.18
2018-05-27T08:46:15.992Z,55.75
2018-05-27T08:47:16.002Z,54.42
2018-05-27T08:48:16.005Z,53.89
2018-05-27T08:49:16.016Z,52.75
2018-05-27T08:50:37.033Z,52.72
2018-05-27T08:51:16.024Z,52.31
2018-05-27T08:52:16.033Z,54.20
2018-05-27T08:53:16.043Z,55.92
2018-05-27T08:54:16.053Z,56.67
2018-05-27T08:55:16.055Z,58.51
2018-05-27T08:56:37.130Z,57.86
2018-05-27T08:57:16.120Z,56.34
2018-05-27T08:58:16.074Z,56.21
2018-05-27T08:59:16.082Z,55.88
2018-05-27T09:00:16.086Z,54.32
2018-05-27T09:01:16.155Z,53.57
2018-05-27T09:02:37.108Z,53.67
2018-05-27T09:03:16.107Z,53.18
2018-05-27T09:04:16.115Z,52.82
2018-05-27T09:05:16.131Z,52.36
2018-05-27T09:06:16.131Z,52.53
2018-05-27T09:07:16.136Z,52.75
2018-05-27T09:08:37.154Z,52.06
2018-05-27T09:09:16.163Z,51.14
2018-05-27T09:10:16.159Z,49.90
2018-05-27T09:11:16.166Z,49.05
2018-05-27T09:12:16.175Z,47.80
2018-05-27T09:13:16.186Z,47.51
2018-05-27T09:14:37.221Z,47.05
2018-05-27T09:15:16.248Z,46.46
2018-05-27T09:16:16.216Z,46.75
2018-05-27T09:17:16.216Z,46.66
2018-05-27T09:18:16.230Z,45.80
2018-05-27T09:19:16.235Z,44.28
2018-05-27T09:20:37.253Z,43.69
2018-05-27T09:21:16.253Z,44.26
2018-05-27T09:22:16.261Z,45.12
2018-05-27T09:23:16.272Z,44.82
2018-05-27T09:24:16.278Z,45.51
2018-05-27T09:25:16.292Z,45.61
2018-05-27T09:26:37.333Z,45.02
2018-05-27T09:27:16.308Z,46.24
2018-05-27T09:28:16.334Z,46.75
2018-05-27T09:29:16.326Z,46.11
2018-05-27T09:30:16.338Z,44.28
2018-05-27T09:31:16.351Z,43.30
2018-05-27T09:32:37.368Z,43.40
2018-05-27T09:33:16.367Z,43.30
2018-05-27T09:34:16.380Z,42.74
2018-05-27T09:35:16.389Z,43.13
2018-05-27T09:36:16.398Z,42.74
2018-05-27T09:37:16.412Z,42.38
2018-05-27T09:38:37.432Z,40.86
2018-05-27T09:39:16.498Z,39.72
2018-05-27T09:40:16.437Z,38.72
2018-05-27T09:41:16.446Z,38.74
2018-05-27T09:42:16.468Z,37.30
2018-05-27T09:43:16.469Z,37.88
2018-05-27T09:44:37.504Z,37.88
2018-05-27T09:45:16.531Z,37.86
2018-05-27T09:46:16.511Z,39.96
2018-05-27T09:47:16.520Z,42.32
2018-05-27T09:48:16.548Z,44.24
2018-05-27T09:49:16.538Z,45.23
2018-05-27T09:50:37.563Z,43.71
2018-05-27T09:51:16.562Z,42.19
2018-05-27T09:52:16.571Z,41.62
2018-05-27T09:53:16.579Z,42.07
2018-05-27T09:54:16.591Z,43.20
2018-05-27T09:55:16.600Z,45.87
2018-05-27T09:56:37.642Z,47.80
2018-05-27T09:57:16.624Z,48.00
2018-05-27T09:58:16.640Z,47.07
2018-05-27T09:59:16.642Z,45.72
2018-05-27T10:00:16.652Z,45.26
2018-05-27T10:01:16.668Z,44.87
2018-05-27T10:02:37.686Z,44.30
2018-05-27T10:03:16.698Z,44.03
2018-05-27T10:04:16.695Z,42.97
2018-05-27T10:05:16.730Z,43.07
2018-05-27T10:06:16.716Z,43.24
2018-05-27T10:07:16.726Z,42.66
2018-05-27T10:08:37.748Z,41.97
2018-05-27T10:09:16.749Z,42.29
2018-05-27T10:10:16.759Z,42.41
2018-05-27T10:11:16.772Z,41.42
2018-05-27T10:12:16.778Z,41.25
2018-05-27T10:13:16.865Z,40.48
2018-05-27T10:14:37.814Z,40.58
2018-05-27T10:15:16.813Z,39.80
2018-05-27T10:16:16.825Z,40.19
2018-05-27T10:17:16.837Z,40.86
2018-05-27T10:18:16.844Z,40.21
2018-05-27T10:19:16.860Z,38.88
2018-05-27T10:20:37.885Z,37.24
2018-05-27T10:21:16.878Z,37.26
2018-05-27T10:22:16.890Z,36.77
2018-05-27T10:23:16.904Z,36.11
2018-05-27T10:24:16.920Z,35.35
2018-05-27T10:25:16.932Z,34.58
2018-05-27T10:26:38.048Z,34.66
2018-05-27T10:27:16.957Z,35.43
2018-05-27T10:28:16.968Z,35.51
2018-05-27T10:29:16.979Z,35.35
2018-05-27T10:30:16.994Z,34.48
2018-05-27T10:31:17.013Z,34.94
2018-05-27T10:32:38.035Z,35.51
2018-05-27T10:33:17.032Z,35.69
2018-05-27T10:34:17.053Z,35.99
2018-05-27T10:35:17.063Z,36.30
2018-05-27T10:36:17.095Z,36.18
2018-05-27T10:37:17.091Z,35.72
2018-05-27T10:38:38.120Z,34.95
2018-05-27T10:39:17.174Z,34.08
2018-05-27T10:40:17.126Z,34.63
2018-05-27T10:41:17.141Z,35.59
2018-05-27T10:42:17.171Z,36.63
2018-05-27T10:43:17.186Z,37.60
2018-05-27T10:44:38.205Z,37.30
2018-05-27T10:45:17.216Z,37.13
2018-05-27T10:46:17.207Z,37.05
2018-05-27T10:47:17.220Z,36.65
2018-05-27T10:48:17.238Z,36.46
2018-05-27T10:49:17.261Z,36.75
2018-05-27T10:50:38.279Z,36.55
2018-05-27T10:51:17.291Z,36.28
2018-05-27T10:52:17.290Z,35.61
2018-05-27T10:53:17.323Z,36.16
2018-05-27T10:54:17.315Z,37.11
2018-05-27T10:55:17.379Z,37.09
2018-05-27T10:56:38.460Z,37.78
2018-05-27T10:57:17.368Z,38.92
2018-05-27T10:58:17.381Z,38.98
2018-05-27T10:59:17.384Z,40.50
2018-05-27T11:00:17.393Z,41.17
2018-05-27T11:01:17.404Z,42.79
2018-05-27T11:02:38.427Z,43.95
2018-05-27T11:03:17.437Z,44.53
2018-05-27T11:04:17.437Z,46.04
2018-05-27T11:05:17.455Z,45.75
2018-05-27T11:06:17.466Z,46.80
2018-05-27T11:07:17.484Z,47.66
2018-05-27T11:08:38.494Z,48.14
2018-05-27T11:09:17.496Z,48.05
2018-05-27T11:10:17.507Z,47.78
2018-05-27T11:11:17.529Z,46.51
2018-05-27T11:12:17.534Z,46.04
2018-05-27T11:13:17.535Z,45.75
2018-05-27T11:14:38.554Z,45.65
2018-05-27T11:15:17.557Z,46.14
2018-05-27T11:16:17.561Z,46.70
2018-05-27T11:17:17.579Z,47.46
2018-05-27T11:18:17.588Z,48.22
2018-05-27T11:19:17.589Z,48.88
2018-05-27T11:20:38.659Z,49.92
2018-05-27T11:21:17.608Z,50.41
2018-05-27T11:22:17.623Z,51.17
2018-05-27T11:23:17.623Z,51.36
2018-05-27T11:24:17.643Z,50.97
2018-05-27T11:25:17.645Z,51.43
2018-05-27T11:26:38.767Z,52.11
2018-05-27T11:27:17.667Z,52.28
2018-05-27T11:28:17.673Z,52.86
2018-05-27T11:29:17.680Z,53.52
2018-05-27T11:30:17.688Z,52.84
2018-05-27T11:31:17.696Z,51.87
2018-05-27T11:32:38.718Z,52.62
2018-05-27T11:33:17.709Z,51.35
2018-05-27T11:34:17.764Z,51.93
2018-05-27T11:35:17.723Z,52.52
2018-05-27T11:36:17.729Z,51.93
2018-05-27T11:37:17.750Z,51.84
2018-05-27T11:38:38.757Z,52.33
2018-05-27T11:39:17.756Z,52.62
2018-05-27T11:40:17.776Z,51.93
2018-05-27T11:41:17.771Z,51.93
2018-05-27T11:42:17.792Z,51.16
2018-05-27T11:43:17.788Z,51.53
2018-05-27T11:44:38.800Z,52.20
2018-05-27T11:45:17.801Z,53.08
2018-05-27T11:46:17.803Z,52.69
2018-05-27T11:47:17.814Z,53.27
2018-05-27T11:48:17.822Z,54.14
2018-05-27T11:49:17.835Z,54.82
2018-05-27T11:50:38.846Z,55.21
2018-05-27T11:51:17.851Z,55.38
2018-05-27T11:52:17.849Z,56.15
2018-05-27T11:53:17.870Z,56.54
2018-05-27T11:54:17.917Z,57.42
2018-05-27T11:55:17.872Z,57.32
2018-05-27T11:56:38.973Z,57.32
2018-05-27T11:57:17.889Z,58.00
2018-05-27T11:58:17.891Z,58.26
2018-05-27T11:59:17.897Z,59.33
2018-05-27T12:00:17.916Z,59.71
2018-05-27T12:01:17.908Z,59.13
2018-05-27T12:02:38.926Z,59.39
2018-05-27T12:03:17.922Z,59.39
2018-05-27T12:04:17.926Z,60.07
2018-05-27T12:05:17.933Z,60.07
2018-05-27T12:06:17.939Z,59.88
2018-05-27T12:07:17.950Z,60.46
2018-05-27T12:08:38.963Z,60.27
2018-05-27T12:09:18.017Z,60.65
2018-05-27T12:10:17.968Z,60.55
2018-05-27T12:11:17.978Z,60.72
2018-05-27T12:12:17.976Z,60.91
2018-05-27T12:13:17.982Z,61.01
2018-05-27T12:14:39.003Z,60.43
2018-05-27T12:15:18.002Z,60.43
2018-05-27T12:16:18.003Z,60.33
2018-05-27T12:17:18.022Z,60.24
2018-05-27T12:18:18.022Z,61.30
2018-05-27T12:19:18.020Z,61.21
2018-05-27T12:20:39.037Z,61.01
2018-05-27T12:21:18.034Z,61.11
2018-05-27T12:22:18.037Z,60.91
2018-05-27T12:23:18.044Z,61.01
2018-05-27T12:24:18.053Z,61.36
2018-05-27T12:25:18.055Z,61.40
2018-05-27T12:26:39.175Z,60.78
2018-05-27T12:27:18.069Z,60.88
2018-05-27T12:28:18.081Z,60.82
2018-05-27T12:29:18.082Z,60.91
2018-05-27T12:30:18.092Z,60.91
2018-05-27T12:31:18.096Z,60.82
2018-05-27T12:32:39.107Z,60.72
2018-05-27T12:33:18.119Z,60.91
2018-05-27T12:34:18.107Z,60.88
2018-05-27T12:35:18.117Z,60.98
2018-05-27T12:36:18.119Z,61.18
2018-05-27T12:37:18.123Z,61.46
2018-05-27T12:38:39.145Z,61.27
2018-05-27T12:39:18.142Z,61.56
2018-05-27T12:40:18.142Z,61.46
2018-05-27T12:41:18.157Z,61.33
2018-05-27T12:42:18.228Z,61.36
2018-05-27T12:43:18.172Z,61.18
2018-05-27T12:44:39.253Z,61.76
2018-05-27T12:45:18.289Z,61.36
2018-05-27T12:46:18.204Z,61.56
2018-05-27T12:47:18.187Z,62.14
2018-05-27T12:48:18.194Z,62.82
2018-05-27T12:49:18.194Z,62.40
2018-05-27T12:50:39.212Z,63.37
2018-05-27T12:51:18.205Z,63.27
2018-05-27T12:52:18.211Z,63.76